Hovedside
METAR-TAF:

METAR-TAF

Lufthavner :

Vamdrup

Kolding, Danmark

breddegrad: 55-26N, lengdegrad: 009-20E, høyde over havet: 44 m

Gjeldene værobservasjon

Denne rapporten ble laget for 29 minutter siden, klokken 18:20 UTC
Vind 20 kt fra Øst
Temperatur 6°C
Luftfuktighet 70%
Trykk 1028 hPa

METAR: EKVD 191820Z AUTO 08020KT //// ///////// 06/01 Q1028

Tid: 19:49 (18:49 UTC)

Varsel

Denne rapporten ble laget for 6 timer og 50 minutter siden, klokken 11:59 UTC
Varsel gyldig fra 19. klokken 12 UTC til 19. klokken 17 UTC
Vind 10 kt fra Øst-nordøst
Sikt 10 km eller mer
Brutte skyer i en høyde av 1500 ft
Midlertidig
fra 19. klokken 12 UTC til 19. klokken 17 UTC
Vind 15 kt fra Øst-nordøst med vindkast opp mot 25 kt

TAF: EKVD 191159Z 1912/1917 07010KT 9999 BKN015 TEMPO 1912/1917 07015G25KT

Værobservasjoner og værvarsel for over 4000 flyplasser (METAR- og TAF-rapporter).

Tilgjengelige stasjoner er representert av de røde og gule prikkene på kartet.

Hold musepekeren over prikken for å se navnet på stasjonen.

Klikk så for å se værobservasjoner og -varsler.

For å forandre kartet kan du klikke på den grønne knappen med svart kryss for å zoome inn, på den grønne knappen med strek for å zoome ut, eller på de grønne pilene for å se tilstøtende kart.


METAR-TAF: